sensor_id;sensor_type;location;lat;lon;timestamp;P1;durP1;ratioP1;P2;durP2;ratioP2
6392;SDS011;3229;42.674;23.282;2024-03-02T00:02:45;15.93;;;12.07;;
6392;SDS011;3229;42.674;23.282;2024-03-02T00:05:33;17.20;;;11.93;;
6392;SDS011;3229;42.674;23.282;2024-03-02T00:08:25;16.57;;;12.10;;
6392;SDS011;3229;42.674;23.282;2024-03-02T00:11:03;15.97;;;12.13;;
6392;SDS011;3229;42.674;23.282;2024-03-02T00:13:53;15.70;;;11.07;;
6392;SDS011;3229;42.674;23.282;2024-03-02T00:16:44;19.30;;;12.33;;
6392;SDS011;3229;42.674;23.282;2024-03-02T00:19:43;18.37;;;12.00;;
6392;SDS011;3229;42.674;23.282;2024-03-02T00:22:35;18.23;;;11.97;;
6392;SDS011;3229;42.674;23.282;2024-03-02T00:25:38;15.97;;;11.27;;
6392;SDS011;3229;42.674;23.282;2024-03-02T00:28:22;17.40;;;11.67;;
6392;SDS011;3229;42.674;23.282;2024-03-02T00:31:20;15.27;;;10.80;;
6392;SDS011;3229;42.674;23.282;2024-03-02T00:34:22;18.03;;;11.80;;
6392;SDS011;3229;42.674;23.282;2024-03-02T00:37:27;14.20;;;11.47;;
6392;SDS011;3229;42.674;23.282;2024-03-02T00:40:27;14.53;;;11.60;;
6392;SDS011;3229;42.674;23.282;2024-03-02T00:43:24;16.03;;;12.07;;
6392;SDS011;3229;42.674;23.282;2024-03-02T00:46:33;18.80;;;11.30;;
6392;SDS011;3229;42.674;23.282;2024-03-02T00:49:25;15.97;;;11.30;;
6392;SDS011;3229;42.674;23.282;2024-03-02T00:52:15;16.27;;;11.23;;
6392;SDS011;3229;42.674;23.282;2024-03-02T00:55:15;15.40;;;11.60;;
6392;SDS011;3229;42.674;23.282;2024-03-02T00:58:05;14.77;;;11.80;;
6392;SDS011;3229;42.674;23.282;2024-03-02T01:00:53;15.07;;;10.90;;
6392;SDS011;3229;42.674;23.282;2024-03-02T01:03:45;17.07;;;11.70;;
6392;SDS011;3229;42.674;23.282;2024-03-02T01:06:42;15.10;;;11.40;;
6392;SDS011;3229;42.674;23.282;2024-03-02T01:09:30;19.97;;;11.83;;
6392;SDS011;3229;42.674;23.282;2024-03-02T01:12:15;16.07;;;11.50;;
6392;SDS011;3229;42.674;23.282;2024-03-02T01:15:19;14.90;;;10.77;;
6392;SDS011;3229;42.674;23.282;2024-03-02T01:18:05;14.20;;;10.77;;
6392;SDS011;3229;42.674;23.282;2024-03-02T01:20:59;15.73;;;11.20;;
6392;SDS011;3229;42.674;23.282;2024-03-02T01:23:53;17.37;;;11.97;;
6392;SDS011;3229;42.674;23.282;2024-03-02T01:26:44;16.73;;;11.90;;
6392;SDS011;3229;42.674;23.282;2024-03-02T01:29:32;16.80;;;11.03;;
6392;SDS011;3229;42.674;23.282;2024-03-02T01:32:25;15.53;;;11.40;;
6392;SDS011;3229;42.674;23.282;2024-03-02T01:35:20;16.23;;;11.07;;
6392;SDS011;3229;42.674;23.282;2024-03-02T01:38:15;18.80;;;11.50;;
6392;SDS011;3229;42.674;23.282;2024-03-02T01:41:05;18.53;;;11.77;;
6392;SDS011;3229;42.674;23.282;2024-03-02T01:47:04;17.43;;;11.47;;
6392;SDS011;3229;42.674;23.282;2024-03-02T01:50:05;18.13;;;11.37;;
6392;SDS011;3229;42.674;23.282;2024-03-02T01:53:03;15.60;;;11.37;;
6392;SDS011;3229;42.674;23.282;2024-03-02T01:55:53;15.77;;;11.13;;
6392;SDS011;3229;42.674;23.282;2024-03-02T01:58:32;16.90;;;12.43;;
6392;SDS011;3229;42.674;23.282;2024-03-02T02:01:45;14.07;;;10.97;;
6392;SDS011;3229;42.674;23.282;2024-03-02T02:04:33;17.20;;;11.83;;
6392;SDS011;3229;42.674;23.282;2024-03-02T02:07:25;15.40;;;10.97;;
6392;SDS011;3229;42.674;23.282;2024-03-02T02:10:15;15.53;;;10.87;;
6392;SDS011;3229;42.674;23.282;2024-03-02T02:13:12;16.07;;;11.23;;
6392;SDS011;3229;42.674;23.282;2024-03-02T02:22:05;14.33;;;10.70;;
6392;SDS011;3229;42.674;23.282;2024-03-02T02:24:55;14.07;;;10.80;;
6392;SDS011;3229;42.674;23.282;2024-03-02T02:27:57;15.23;;;11.40;;
6392;SDS011;3229;42.674;23.282;2024-03-02T02:30:43;14.63;;;11.27;;
6392;SDS011;3229;42.674;23.282;2024-03-02T02:33:22;14.73;;;11.57;;
6392;SDS011;3229;42.674;23.282;2024-03-02T02:36:23;15.17;;;10.70;;
6392;SDS011;3229;42.674;23.282;2024-03-02T02:39:22;14.57;;;10.67;;
6392;SDS011;3229;42.674;23.282;2024-03-02T02:42:22;17.23;;;12.50;;
6392;SDS011;3229;42.674;23.282;2024-03-02T02:45:16;15.30;;;11.87;;
6392;SDS011;3229;42.674;23.282;2024-03-02T02:48:03;16.33;;;11.50;;
6392;SDS011;3229;42.674;23.282;2024-03-02T02:50:45;14.47;;;10.80;;
6392;SDS011;3229;42.674;23.282;2024-03-02T02:53:33;16.23;;;11.50;;
6392;SDS011;3229;42.674;23.282;2024-03-02T02:56:38;15.50;;;12.20;;
6392;SDS011;3229;42.674;23.282;2024-03-02T02:59:22;15.43;;;12.10;;
6392;SDS011;3229;42.674;23.282;2024-03-02T03:02:12;21.27;;;13.60;;
6392;SDS011;3229;42.674;23.282;2024-03-02T03:05:05;15.30;;;12.53;;
6392;SDS011;3229;42.674;23.282;2024-03-02T03:08:05;17.67;;;12.50;;
6392;SDS011;3229;42.674;23.282;2024-03-02T03:11:03;18.07;;;12.90;;
6392;SDS011;3229;42.674;23.282;2024-03-02T03:14:05;18.20;;;13.40;;
6392;SDS011;3229;42.674;23.282;2024-03-02T03:16:52;15.10;;;11.63;;
6392;SDS011;3229;42.674;23.282;2024-03-02T03:19:55;19.10;;;13.23;;
6392;SDS011;3229;42.674;23.282;2024-03-02T03:22:58;16.87;;;12.93;;
6392;SDS011;3229;42.674;23.282;2024-03-02T03:25:49;19.03;;;12.70;;
6392;SDS011;3229;42.674;23.282;2024-03-02T03:28:45;20.07;;;13.77;;
6392;SDS011;3229;42.674;23.282;2024-03-02T03:31:45;19.03;;;13.93;;
6392;SDS011;3229;42.674;23.282;2024-03-02T03:34:42;16.60;;;12.83;;
6392;SDS011;3229;42.674;23.282;2024-03-02T03:37:35;23.33;;;14.40;;
6392;SDS011;3229;42.674;23.282;2024-03-02T03:40:32;19.63;;;13.03;;
6392;SDS011;3229;42.674;23.282;2024-03-02T03:43:23;19.80;;;13.60;;
6392;SDS011;3229;42.674;23.282;2024-03-02T03:46:25;21.00;;;14.63;;
6392;SDS011;3229;42.674;23.282;2024-03-02T03:49:09;18.33;;;13.70;;
6392;SDS011;3229;42.674;23.282;2024-03-02T03:51:52;19.47;;;13.80;;
6392;SDS011;3229;42.674;23.282;2024-03-02T03:54:42;16.97;;;12.57;;
6392;SDS011;3229;42.674;23.282;2024-03-02T03:57:34;18.53;;;13.53;;
6392;SDS011;3229;42.674;23.282;2024-03-02T04:00:34;21.33;;;13.97;;
6392;SDS011;3229;42.674;23.282;2024-03-02T04:03:17;18.67;;;13.47;;
6392;SDS011;3229;42.674;23.282;2024-03-02T04:06:03;17.67;;;13.30;;
6392;SDS011;3229;42.674;23.282;2024-03-02T04:09:05;19.33;;;13.23;;
6392;SDS011;3229;42.674;23.282;2024-03-02T04:11:52;17.90;;;14.00;;
6392;SDS011;3229;42.674;23.282;2024-03-02T04:14:52;19.73;;;14.10;;
6392;SDS011;3229;42.674;23.282;2024-03-02T04:17:36;18.87;;;13.23;;
6392;SDS011;3229;42.674;23.282;2024-03-02T04:20:22;24.53;;;14.03;;
6392;SDS011;3229;42.674;23.282;2024-03-02T04:23:35;20.40;;;13.60;;
6392;SDS011;3229;42.674;23.282;2024-03-02T04:26:32;17.87;;;13.20;;
6392;SDS011;3229;42.674;23.282;2024-03-02T04:29:18;18.10;;;12.50;;
6392;SDS011;3229;42.674;23.282;2024-03-02T04:32:12;18.13;;;13.83;;
6392;SDS011;3229;42.674;23.282;2024-03-02T04:34:54;19.73;;;14.27;;
6392;SDS011;3229;42.674;23.282;2024-03-02T04:37:52;20.77;;;14.67;;
6392;SDS011;3229;42.674;23.282;2024-03-02T04:40:53;18.03;;;13.90;;
6392;SDS011;3229;42.674;23.282;2024-03-02T04:43:43;19.67;;;13.97;;
6392;SDS011;3229;42.674;23.282;2024-03-02T04:46:37;19.80;;;13.83;;
6392;SDS011;3229;42.674;23.282;2024-03-02T04:49:35;15.77;;;12.20;;
6392;SDS011;3229;42.674;23.282;2024-03-02T04:52:31;20.83;;;14.50;;
6392;SDS011;3229;42.674;23.282;2024-03-02T04:55:20;18.93;;;13.40;;
6392;SDS011;3229;42.674;23.282;2024-03-02T04:58:35;18.27;;;13.30;;
6392;SDS011;3229;42.674;23.282;2024-03-02T05:01:23;16.93;;;12.47;;
6392;SDS011;3229;42.674;23.282;2024-03-02T05:04:12;21.47;;;14.00;;
6392;SDS011;3229;42.674;23.282;2024-03-02T05:07:05;19.77;;;14.03;;
6392;SDS011;3229;42.674;23.282;2024-03-02T05:09:52;20.03;;;13.93;;
6392;SDS011;3229;42.674;23.282;2024-03-02T05:12:55;18.67;;;13.53;;
6392;SDS011;3229;42.674;23.282;2024-03-02T05:19:14;18.17;;;13.70;;
6392;SDS011;3229;42.674;23.282;2024-03-02T05:22:04;21.33;;;15.20;;
6392;SDS011;3229;42.674;23.282;2024-03-02T05:24:52;21.73;;;14.80;;
6392;SDS011;3229;42.674;23.282;2024-03-02T05:27:40;19.23;;;14.33;;
6392;SDS011;3229;42.674;23.282;2024-03-02T05:30:27;20.03;;;14.30;;
6392;SDS011;3229;42.674;23.282;2024-03-02T05:33:28;23.90;;;15.30;;
6392;SDS011;3229;42.674;23.282;2024-03-02T05:36:15;19.10;;;14.47;;
6392;SDS011;3229;42.674;23.282;2024-03-02T05:39:15;19.57;;;14.77;;
6392;SDS011;3229;42.674;23.282;2024-03-02T05:42:14;21.70;;;14.60;;
6392;SDS011;3229;42.674;23.282;2024-03-02T05:45:15;18.03;;;13.63;;
6392;SDS011;3229;42.674;23.282;2024-03-02T05:48:02;22.77;;;14.47;;
6392;SDS011;3229;42.674;23.282;2024-03-02T05:51:15;18.97;;;14.00;;
6392;SDS011;3229;42.674;23.282;2024-03-02T05:54:10;19.77;;;13.67;;
6392;SDS011;3229;42.674;23.282;2024-03-02T05:56:55;18.83;;;13.40;;
6392;SDS011;3229;42.674;23.282;2024-03-02T06:00:05;19.97;;;14.60;;
6392;SDS011;3229;42.674;23.282;2024-03-02T06:03:01;19.07;;;14.03;;
6392;SDS011;3229;42.674;23.282;2024-03-02T06:05:32;21.73;;;14.50;;
6392;SDS011;3229;42.674;23.282;2024-03-02T06:08:25;23.03;;;15.00;;
6392;SDS011;3229;42.674;23.282;2024-03-02T06:11:01;22.47;;;16.10;;
6392;SDS011;3229;42.674;23.282;2024-03-02T06:13:29;23.23;;;16.30;;
6392;SDS011;3229;42.674;23.282;2024-03-02T06:15:57;24.10;;;17.13;;
6392;SDS011;3229;42.674;23.282;2024-03-02T06:18:24;24.83;;;17.50;;
6392;SDS011;3229;42.674;23.282;2024-03-02T06:20:52;24.50;;;18.50;;
6392;SDS011;3229;42.674;23.282;2024-03-02T06:23:25;28.23;;;19.03;;
6392;SDS011;3229;42.674;23.282;2024-03-02T06:26:04;26.17;;;17.23;;
6392;SDS011;3229;42.674;23.282;2024-03-02T06:29:05;26.30;;;17.77;;
6392;SDS011;3229;42.674;23.282;2024-03-02T06:32:03;24.87;;;17.40;;
6392;SDS011;3229;42.674;23.282;2024-03-02T06:35:02;25.90;;;17.87;;
6392;SDS011;3229;42.674;23.282;2024-03-02T06:37:54;27.33;;;19.23;;
6392;SDS011;3229;42.674;23.282;2024-03-02T06:40:58;24.27;;;17.83;;
6392;SDS011;3229;42.674;23.282;2024-03-02T06:43:54;25.03;;;17.73;;
6392;SDS011;3229;42.674;23.282;2024-03-02T06:46:38;27.57;;;17.37;;
6392;SDS011;3229;42.674;23.282;2024-03-02T06:49:15;26.90;;;18.50;;
6392;SDS011;3229;42.674;23.282;2024-03-02T06:52:13;24.27;;;17.77;;
6392;SDS011;3229;42.674;23.282;2024-03-02T06:55:00;23.07;;;16.93;;
6392;SDS011;3229;42.674;23.282;2024-03-02T06:57:44;24.03;;;17.40;;
6392;SDS011;3229;42.674;23.282;2024-03-02T07:00:34;24.00;;;16.10;;
6392;SDS011;3229;42.674;23.282;2024-03-02T07:03:24;22.73;;;16.10;;
6392;SDS011;3229;42.674;23.282;2024-03-02T07:06:05;23.03;;;15.80;;
6392;SDS011;3229;42.674;23.282;2024-03-02T07:08:57;21.17;;;15.50;;
6392;SDS011;3229;42.674;23.282;2024-03-02T07:11:53;22.13;;;15.17;;
6392;SDS011;3229;42.674;23.282;2024-03-02T07:14:41;19.80;;;14.57;;
6392;SDS011;3229;42.674;23.282;2024-03-02T07:17:35;21.30;;;14.97;;
6392;SDS011;3229;42.674;23.282;2024-03-02T07:20:31;17.73;;;14.23;;
6392;SDS011;3229;42.674;23.282;2024-03-02T07:23:13;17.63;;;13.37;;
6392;SDS011;3229;42.674;23.282;2024-03-02T07:25:52;18.70;;;13.93;;
6392;SDS011;3229;42.674;23.282;2024-03-02T07:28:43;20.30;;;14.30;;
6392;SDS011;3229;42.674;23.282;2024-03-02T07:31:43;19.40;;;14.17;;
6392;SDS011;3229;42.674;23.282;2024-03-02T07:34:35;21.13;;;13.77;;
6392;SDS011;3229;42.674;23.282;2024-03-02T07:37:36;19.20;;;13.77;;
6392;SDS011;3229;42.674;23.282;2024-03-02T07:40:21;18.80;;;13.50;;
6392;SDS011;3229;42.674;23.282;2024-03-02T07:43:08;20.03;;;13.77;;
6392;SDS011;3229;42.674;23.282;2024-03-02T07:46:05;18.87;;;13.67;;
6392;SDS011;3229;42.674;23.282;2024-03-02T07:49:03;19.63;;;13.20;;
6392;SDS011;3229;42.674;23.282;2024-03-02T07:51:45;22.03;;;13.13;;
6392;SDS011;3229;42.674;23.282;2024-03-02T07:54:52;20.03;;;12.47;;
6392;SDS011;3229;42.674;23.282;2024-03-02T07:57:52;17.30;;;12.23;;
6392;SDS011;3229;42.674;23.282;2024-03-02T08:00:42;17.00;;;12.73;;
6392;SDS011;3229;42.674;23.282;2024-03-02T08:03:42;18.83;;;13.13;;
6392;SDS011;3229;42.674;23.282;2024-03-02T08:06:43;19.57;;;14.17;;
6392;SDS011;3229;42.674;23.282;2024-03-02T08:12:24;21.27;;;14.20;;
6392;SDS011;3229;42.674;23.282;2024-03-02T08:15:22;19.80;;;13.17;;
6392;SDS011;3229;42.674;23.282;2024-03-02T08:18:12;19.23;;;13.20;;
6392;SDS011;3229;42.674;23.282;2024-03-02T08:20:53;20.67;;;13.73;;
6392;SDS011;3229;42.674;23.282;2024-03-02T08:23:41;20.73;;;13.63;;
6392;SDS011;3229;42.674;23.282;2024-03-02T08:26:16;20.90;;;13.90;;
6392;SDS011;3229;42.674;23.282;2024-03-02T08:29:02;18.87;;;13.57;;
6392;SDS011;3229;42.674;23.282;2024-03-02T08:31:44;17.87;;;13.73;;
6392;SDS011;3229;42.674;23.282;2024-03-02T08:34:34;21.17;;;13.67;;
6392;SDS011;3229;42.674;23.282;2024-03-02T08:37:24;21.67;;;13.63;;
6392;SDS011;3229;42.674;23.282;2024-03-02T08:40:28;22.80;;;14.27;;
6392;SDS011;3229;42.674;23.282;2024-03-02T08:43:15;19.50;;;13.20;;
6392;SDS011;3229;42.674;23.282;2024-03-02T08:46:14;18.87;;;13.93;;
6392;SDS011;3229;42.674;23.282;2024-03-02T08:49:03;19.60;;;14.23;;
6392;SDS011;3229;42.674;23.282;2024-03-02T08:51:51;21.73;;;13.10;;
6392;SDS011;3229;42.674;23.282;2024-03-02T08:54:32;20.33;;;13.77;;
6392;SDS011;3229;42.674;23.282;2024-03-02T08:57:32;25.23;;;15.07;;
6392;SDS011;3229;42.674;23.282;2024-03-02T09:00:23;17.47;;;12.53;;
6392;SDS011;3229;42.674;23.282;2024-03-02T09:03:12;21.43;;;13.53;;
6392;SDS011;3229;42.674;23.282;2024-03-02T09:06:08;19.00;;;13.43;;
6392;SDS011;3229;42.674;23.282;2024-03-02T09:09:08;17.90;;;13.63;;
6392;SDS011;3229;42.674;23.282;2024-03-02T09:12:05;17.53;;;12.57;;
6392;SDS011;3229;42.674;23.282;2024-03-02T09:15:12;19.87;;;13.67;;
6392;SDS011;3229;42.674;23.282;2024-03-02T09:18:03;18.40;;;13.37;;
6392;SDS011;3229;42.674;23.282;2024-03-02T09:20:52;16.73;;;12.00;;
6392;SDS011;3229;42.674;23.282;2024-03-02T09:23:43;16.53;;;13.30;;
6392;SDS011;3229;42.674;23.282;2024-03-02T09:26:45;20.73;;;13.77;;
6392;SDS011;3229;42.674;23.282;2024-03-02T09:29:32;18.40;;;12.53;;
6392;SDS011;3229;42.674;23.282;2024-03-02T09:32:32;19.00;;;12.20;;
6392;SDS011;3229;42.674;23.282;2024-03-02T09:35:35;16.47;;;12.37;;
6392;SDS011;3229;42.674;23.282;2024-03-02T09:38:25;16.00;;;11.50;;
6392;SDS011;3229;42.674;23.282;2024-03-02T09:41:15;16.20;;;10.93;;
6392;SDS011;3229;42.674;23.282;2024-03-02T09:44:14;17.13;;;12.27;;
6392;SDS011;3229;42.674;23.282;2024-03-02T09:47:06;16.17;;;12.47;;
6392;SDS011;3229;42.674;23.282;2024-03-02T09:50:05;16.63;;;11.93;;
6392;SDS011;3229;42.674;23.282;2024-03-02T09:53:03;16.97;;;12.30;;
6392;SDS011;3229;42.674;23.282;2024-03-02T09:55:53;16.47;;;11.83;;
6392;SDS011;3229;42.674;23.282;2024-03-02T09:58:45;17.73;;;11.43;;
6392;SDS011;3229;42.674;23.282;2024-03-02T10:04:32;15.17;;;11.53;;
6392;SDS011;3229;42.674;23.282;2024-03-02T10:07:12;18.53;;;12.20;;
6392;SDS011;3229;42.674;23.282;2024-03-02T10:09:39;15.37;;;11.13;;
6392;SDS011;3229;42.674;23.282;2024-03-02T10:12:07;16.67;;;12.03;;
6392;SDS011;3229;42.674;23.282;2024-03-02T10:14:35;16.17;;;11.20;;
6392;SDS011;3229;42.674;23.282;2024-03-02T10:17:02;16.20;;;11.60;;
6392;SDS011;3229;42.674;23.282;2024-03-02T10:19:30;20.07;;;12.67;;
6392;SDS011;3229;42.674;23.282;2024-03-02T10:21:58;20.13;;;13.23;;
6392;SDS011;3229;42.674;23.282;2024-03-02T10:24:26;17.37;;;12.77;;
6392;SDS011;3229;42.674;23.282;2024-03-02T10:26:54;17.47;;;12.27;;
6392;SDS011;3229;42.674;23.282;2024-03-02T10:29:21;16.03;;;11.60;;
6392;SDS011;3229;42.674;23.282;2024-03-02T10:31:48;19.43;;;12.03;;
6392;SDS011;3229;42.674;23.282;2024-03-02T10:34:15;19.97;;;12.50;;
6392;SDS011;3229;42.674;23.282;2024-03-02T10:36:43;16.63;;;12.60;;
6392;SDS011;3229;42.674;23.282;2024-03-02T10:39:11;18.30;;;12.37;;
6392;SDS011;3229;42.674;23.282;2024-03-02T10:41:41;17.27;;;11.70;;
6392;SDS011;3229;42.674;23.282;2024-03-02T10:44:10;19.20;;;13.00;;
6392;SDS011;3229;42.674;23.282;2024-03-02T10:46:37;18.47;;;13.27;;
6392;SDS011;3229;42.674;23.282;2024-03-02T10:49:04;19.33;;;13.53;;
6392;SDS011;3229;42.674;23.282;2024-03-02T10:51:32;21.03;;;12.30;;
6392;SDS011;3229;42.674;23.282;2024-03-02T10:54:01;20.40;;;13.60;;
6392;SDS011;3229;42.674;23.282;2024-03-02T10:56:30;17.43;;;12.63;;
6392;SDS011;3229;42.674;23.282;2024-03-02T10:59:03;20.90;;;13.40;;
6392;SDS011;3229;42.674;23.282;2024-03-02T11:01:32;21.77;;;13.63;;
6392;SDS011;3229;42.674;23.282;2024-03-02T11:04:01;18.43;;;13.30;;
6392;SDS011;3229;42.674;23.282;2024-03-02T11:06:30;19.80;;;13.70;;
6392;SDS011;3229;42.674;23.282;2024-03-02T11:09:00;18.17;;;13.17;;
6392;SDS011;3229;42.674;23.282;2024-03-02T11:11:35;22.37;;;14.10;;
6392;SDS011;3229;42.674;23.282;2024-03-02T11:14:11;19.30;;;14.47;;
6392;SDS011;3229;42.674;23.282;2024-03-02T11:16:40;21.17;;;12.93;;
6392;SDS011;3229;42.674;23.282;2024-03-02T11:19:07;20.70;;;14.60;;
6392;SDS011;3229;42.674;23.282;2024-03-02T11:21:36;23.57;;;14.30;;
6392;SDS011;3229;42.674;23.282;2024-03-02T11:26:58;22.80;;;13.67;;
6392;SDS011;3229;42.674;23.282;2024-03-02T11:29:46;18.77;;;13.00;;
6392;SDS011;3229;42.674;23.282;2024-03-02T11:32:17;20.90;;;13.70;;
6392;SDS011;3229;42.674;23.282;2024-03-02T11:34:47;22.17;;;14.40;;
6392;SDS011;3229;42.674;23.282;2024-03-02T11:37:15;23.43;;;13.63;;
6392;SDS011;3229;42.674;23.282;2024-03-02T11:39:44;20.93;;;13.77;;
6392;SDS011;3229;42.674;23.282;2024-03-02T11:42:11;22.47;;;13.63;;
6392;SDS011;3229;42.674;23.282;2024-03-02T11:44:42;19.13;;;13.27;;
6392;SDS011;3229;42.674;23.282;2024-03-02T11:47:13;20.17;;;13.80;;
6392;SDS011;3229;42.674;23.282;2024-03-02T11:49:41;20.50;;;14.17;;
6392;SDS011;3229;42.674;23.282;2024-03-02T11:52:10;18.53;;;12.40;;
6392;SDS011;3229;42.674;23.282;2024-03-02T11:54:39;16.23;;;12.87;;
6392;SDS011;3229;42.674;23.282;2024-03-02T11:57:11;19.50;;;12.70;;
6392;SDS011;3229;42.674;23.282;2024-03-02T11:59:39;18.67;;;12.47;;
6392;SDS011;3229;42.674;23.282;2024-03-02T12:02:06;17.80;;;13.37;;
6392;SDS011;3229;42.674;23.282;2024-03-02T12:04:34;16.73;;;12.03;;
6392;SDS011;3229;42.674;23.282;2024-03-02T12:07:01;19.23;;;13.40;;
6392;SDS011;3229;42.674;23.282;2024-03-02T12:09:28;18.30;;;12.77;;
6392;SDS011;3229;42.674;23.282;2024-03-02T12:12:02;21.50;;;14.20;;
6392;SDS011;3229;42.674;23.282;2024-03-02T12:14:30;18.13;;;12.53;;
6392;SDS011;3229;42.674;23.282;2024-03-02T12:16:57;18.53;;;13.50;;
6392;SDS011;3229;42.674;23.282;2024-03-02T12:19:25;17.13;;;12.70;;
6392;SDS011;3229;42.674;23.282;2024-03-02T12:21:53;21.33;;;13.93;;
6392;SDS011;3229;42.674;23.282;2024-03-02T12:24:21;16.07;;;12.83;;
6392;SDS011;3229;42.674;23.282;2024-03-02T12:26:49;17.13;;;12.40;;
6392;SDS011;3229;42.674;23.282;2024-03-02T12:29:16;19.43;;;12.67;;
6392;SDS011;3229;42.674;23.282;2024-03-02T12:31:45;15.90;;;12.67;;
6392;SDS011;3229;42.674;23.282;2024-03-02T12:34:14;19.77;;;13.53;;
6392;SDS011;3229;42.674;23.282;2024-03-02T12:36:42;18.07;;;13.20;;
6392;SDS011;3229;42.674;23.282;2024-03-02T12:39:13;17.20;;;12.40;;
6392;SDS011;3229;42.674;23.282;2024-03-02T12:41:41;20.20;;;13.13;;
6392;SDS011;3229;42.674;23.282;2024-03-02T12:44:07;16.10;;;12.03;;
6392;SDS011;3229;42.674;23.282;2024-03-02T12:46:34;19.13;;;12.57;;
6392;SDS011;3229;42.674;23.282;2024-03-02T12:49:05;16.23;;;12.50;;
6392;SDS011;3229;42.674;23.282;2024-03-02T12:51:34;17.20;;;13.07;;
6392;SDS011;3229;42.674;23.282;2024-03-02T12:54:02;17.70;;;12.57;;
6392;SDS011;3229;42.674;23.282;2024-03-02T12:56:31;15.60;;;11.87;;
6392;SDS011;3229;42.674;23.282;2024-03-02T12:58:59;19.07;;;13.20;;
6392;SDS011;3229;42.674;23.282;2024-03-02T13:01:26;17.40;;;13.00;;
6392;SDS011;3229;42.674;23.282;2024-03-02T13:03:53;19.40;;;13.40;;
6392;SDS011;3229;42.674;23.282;2024-03-02T13:06:22;21.03;;;13.83;;
6392;SDS011;3229;42.674;23.282;2024-03-02T13:08:49;15.23;;;11.97;;
6392;SDS011;3229;42.674;23.282;2024-03-02T13:11:16;16.83;;;12.00;;
6392;SDS011;3229;42.674;23.282;2024-03-02T13:13:44;17.97;;;12.70;;
6392;SDS011;3229;42.674;23.282;2024-03-02T13:16:12;15.53;;;11.57;;
6392;SDS011;3229;42.674;23.282;2024-03-02T13:18:40;17.50;;;12.00;;
6392;SDS011;3229;42.674;23.282;2024-03-02T13:21:07;17.47;;;12.00;;
6392;SDS011;3229;42.674;23.282;2024-03-02T13:23:34;19.70;;;12.40;;
6392;SDS011;3229;42.674;23.282;2024-03-02T13:26:01;17.13;;;11.83;;
6392;SDS011;3229;42.674;23.282;2024-03-02T13:28:28;18.03;;;12.73;;
6392;SDS011;3229;42.674;23.282;2024-03-02T13:30:57;16.13;;;12.20;;
6392;SDS011;3229;42.674;23.282;2024-03-02T13:33:23;18.57;;;11.83;;
6392;SDS011;3229;42.674;23.282;2024-03-02T13:35:50;17.23;;;12.20;;
6392;SDS011;3229;42.674;23.282;2024-03-02T13:38:18;14.67;;;12.23;;
6392;SDS011;3229;42.674;23.282;2024-03-02T13:40:46;16.03;;;11.83;;
6392;SDS011;3229;42.674;23.282;2024-03-02T13:43:16;16.47;;;12.30;;
6392;SDS011;3229;42.674;23.282;2024-03-02T13:45:43;16.03;;;12.53;;
6392;SDS011;3229;42.674;23.282;2024-03-02T13:48:11;18.43;;;13.10;;
6392;SDS011;3229;42.674;23.282;2024-03-02T13:50:39;15.63;;;11.93;;
6392;SDS011;3229;42.674;23.282;2024-03-02T13:53:06;18.30;;;11.50;;
6392;SDS011;3229;42.674;23.282;2024-03-02T13:55:34;15.00;;;11.90;;
6392;SDS011;3229;42.674;23.282;2024-03-02T13:58:01;15.70;;;12.23;;
6392;SDS011;3229;42.674;23.282;2024-03-02T14:00:27;18.10;;;12.23;;
6392;SDS011;3229;42.674;23.282;2024-03-02T14:02:54;17.27;;;12.57;;
6392;SDS011;3229;42.674;23.282;2024-03-02T14:05:23;14.33;;;11.67;;
6392;SDS011;3229;42.674;23.282;2024-03-02T14:07:50;16.93;;;12.00;;
6392;SDS011;3229;42.674;23.282;2024-03-02T14:10:17;17.47;;;11.67;;
6392;SDS011;3229;42.674;23.282;2024-03-02T14:12:47;16.07;;;12.23;;
6392;SDS011;3229;42.674;23.282;2024-03-02T14:15:14;15.47;;;10.83;;
6392;SDS011;3229;42.674;23.282;2024-03-02T14:17:41;19.13;;;12.37;;
6392;SDS011;3229;42.674;23.282;2024-03-02T14:20:08;17.53;;;11.83;;
6392;SDS011;3229;42.674;23.282;2024-03-02T14:22:38;20.60;;;13.33;;
6392;SDS011;3229;42.674;23.282;2024-03-02T14:25:05;18.73;;;12.97;;
6392;SDS011;3229;42.674;23.282;2024-03-02T14:27:33;16.37;;;12.13;;
6392;SDS011;3229;42.674;23.282;2024-03-02T14:30:00;17.60;;;13.33;;
6392;SDS011;3229;42.674;23.282;2024-03-02T14:32:27;19.60;;;12.63;;
6392;SDS011;3229;42.674;23.282;2024-03-02T14:34:54;17.53;;;12.97;;
6392;SDS011;3229;42.674;23.282;2024-03-02T14:37:21;19.37;;;13.10;;
6392;SDS011;3229;42.674;23.282;2024-03-02T14:39:49;17.53;;;12.40;;
6392;SDS011;3229;42.674;23.282;2024-03-02T14:42:16;17.60;;;12.43;;
6392;SDS011;3229;42.674;23.282;2024-03-02T14:44:43;17.83;;;12.97;;
6392;SDS011;3229;42.674;23.282;2024-03-02T14:47:09;17.30;;;12.83;;
6392;SDS011;3229;42.674;23.282;2024-03-02T14:49:36;15.90;;;12.60;;
6392;SDS011;3229;42.674;23.282;2024-03-02T14:52:05;15.63;;;12.27;;
6392;SDS011;3229;42.674;23.282;2024-03-02T14:54:32;14.47;;;11.03;;
6392;SDS011;3229;42.674;23.282;2024-03-02T14:57:01;14.57;;;11.70;;
6392;SDS011;3229;42.674;23.282;2024-03-02T14:59:28;16.23;;;12.57;;
6392;SDS011;3229;42.674;23.282;2024-03-02T15:01:55;15.57;;;11.30;;
6392;SDS011;3229;42.674;23.282;2024-03-02T15:04:22;17.00;;;13.00;;
6392;SDS011;3229;42.674;23.282;2024-03-02T15:06:50;17.03;;;11.87;;
6392;SDS011;3229;42.674;23.282;2024-03-02T15:09:17;20.60;;;12.63;;
6392;SDS011;3229;42.674;23.282;2024-03-02T15:11:45;16.07;;;12.37;;
6392;SDS011;3229;42.674;23.282;2024-03-02T15:14:13;15.17;;;12.40;;
6392;SDS011;3229;42.674;23.282;2024-03-02T15:16:40;17.20;;;12.23;;
6392;SDS011;3229;42.674;23.282;2024-03-02T15:19:08;15.43;;;11.73;;
6392;SDS011;3229;42.674;23.282;2024-03-02T15:21:35;14.53;;;11.17;;
6392;SDS011;3229;42.674;23.282;2024-03-02T15:24:01;18.17;;;13.10;;
6392;SDS011;3229;42.674;23.282;2024-03-02T15:26:28;16.77;;;13.70;;
6392;SDS011;3229;42.674;23.282;2024-03-02T15:28:55;16.63;;;12.70;;
6392;SDS011;3229;42.674;23.282;2024-03-02T15:31:25;16.43;;;12.80;;
6392;SDS011;3229;42.674;23.282;2024-03-02T15:33:52;18.63;;;13.67;;
6392;SDS011;3229;42.674;23.282;2024-03-02T15:36:21;16.37;;;12.37;;
6392;SDS011;3229;42.674;23.282;2024-03-02T15:38:47;15.43;;;12.47;;
6392;SDS011;3229;42.674;23.282;2024-03-02T15:41:14;16.93;;;13.23;;
6392;SDS011;3229;42.674;23.282;2024-03-02T15:43:41;21.80;;;13.07;;
6392;SDS011;3229;42.674;23.282;2024-03-02T15:46:08;16.27;;;12.33;;
6392;SDS011;3229;42.674;23.282;2024-03-02T15:48:36;15.27;;;12.23;;
6392;SDS011;3229;42.674;23.282;2024-03-02T15:51:03;17.80;;;12.67;;
6392;SDS011;3229;42.674;23.282;2024-03-02T15:53:30;17.13;;;13.03;;
6392;SDS011;3229;42.674;23.282;2024-03-02T15:55:57;17.30;;;11.97;;
6392;SDS011;3229;42.674;23.282;2024-03-02T15:58:25;16.00;;;12.30;;
6392;SDS011;3229;42.674;23.282;2024-03-02T16:00:52;16.87;;;12.63;;
6392;SDS011;3229;42.674;23.282;2024-03-02T16:03:18;17.70;;;13.73;;
6392;SDS011;3229;42.674;23.282;2024-03-02T16:05:47;18.47;;;13.50;;
6392;SDS011;3229;42.674;23.282;2024-03-02T16:08:13;18.60;;;13.63;;
6392;SDS011;3229;42.674;23.282;2024-03-02T16:10:40;18.50;;;13.17;;
6392;SDS011;3229;42.674;23.282;2024-03-02T16:13:07;19.80;;;13.63;;
6392;SDS011;3229;42.674;23.282;2024-03-02T16:15:34;18.07;;;13.97;;
6392;SDS011;3229;42.674;23.282;2024-03-02T16:18:01;17.57;;;12.80;;
6392;SDS011;3229;42.674;23.282;2024-03-02T16:20:27;19.77;;;13.33;;
6392;SDS011;3229;42.674;23.282;2024-03-02T16:22:56;17.53;;;13.30;;